createdAt,value
2018-02-21T00:01:07.533Z,5.12
2018-02-21T00:03:36.740Z,5.10
2018-02-21T00:06:06.456Z,5.17
2018-02-21T00:08:35.686Z,5.16
2018-02-21T00:11:05.923Z,5.13
2018-02-21T00:13:37.660Z,5.16
2018-02-21T00:16:06.916Z,5.14
2018-02-21T00:19:38.673Z,5.13
2018-02-21T00:22:08.556Z,5.09
2018-02-21T00:24:37.842Z,5.05
2018-02-21T00:27:07.468Z,5.01
2018-02-21T00:29:37.086Z,4.94
2018-02-21T00:32:06.349Z,4.86
2018-02-21T00:34:35.738Z,4.93
2018-02-21T00:37:05.475Z,4.87
2018-02-21T00:39:34.735Z,4.82
2018-02-21T00:42:06.331Z,4.83
2018-02-21T00:44:36.298Z,4.83
2018-02-21T00:47:05.528Z,4.82
2018-02-21T00:49:35.947Z,4.71
2018-02-21T00:52:06.400Z,4.68
2018-02-21T00:54:35.663Z,4.62
2018-02-21T00:57:06.140Z,4.57
2018-02-21T00:59:36.963Z,4.56
2018-02-21T01:02:06.233Z,4.55
2018-02-21T01:04:35.511Z,4.54
2018-02-21T01:07:06.260Z,4.57
2018-02-21T01:09:35.552Z,4.48
2018-02-21T01:12:05.732Z,4.44
2018-02-21T01:14:36.596Z,4.41
2018-02-21T01:17:06.284Z,4.38
2018-02-21T01:19:35.626Z,4.32
2018-02-21T01:22:06.588Z,4.33
2018-02-21T01:24:35.889Z,4.27
2018-02-21T01:27:05.152Z,4.28
2018-02-21T01:29:35.765Z,4.37
2018-02-21T01:32:05.668Z,4.38
2018-02-21T01:34:35.014Z,4.40
2018-02-21T01:37:05.627Z,4.45
2018-02-21T01:39:49.271Z,4.41
2018-02-21T01:42:18.958Z,4.48
2018-02-21T01:44:48.211Z,4.48
2018-02-21T01:47:17.461Z,4.49
2018-02-21T01:49:47.028Z,4.38
2018-02-21T01:52:16.324Z,4.33
2018-02-21T01:54:45.587Z,4.28
2018-02-21T01:57:15.376Z,4.32
2018-02-21T01:59:44.634Z,4.29
2018-02-21T02:02:14.069Z,4.32
2018-02-21T02:04:43.915Z,4.31
2018-02-21T02:07:13.155Z,4.26
2018-02-21T02:09:42.420Z,4.23
2018-02-21T02:12:12.089Z,4.23
2018-02-21T02:14:41.331Z,4.19
2018-02-21T02:17:10.550Z,4.12
2018-02-21T02:19:40.169Z,4.16
2018-02-21T02:22:09.427Z,4.25
2018-02-21T02:24:38.712Z,4.28
2018-02-21T02:27:08.275Z,4.25
2018-02-21T02:29:37.538Z,4.28
2018-02-21T02:32:06.781Z,4.25
2018-02-21T02:34:36.526Z,4.23
2018-02-21T02:37:05.762Z,4.17
2018-02-21T02:40:03.143Z,4.23
2018-02-21T02:42:32.783Z,4.22
2018-02-21T02:45:02.466Z,4.23
2018-02-21T02:47:32.087Z,4.28
2018-02-21T02:50:01.503Z,4.25
2018-02-21T02:52:30.781Z,4.26
2018-02-21T02:55:00.539Z,4.25
2018-02-21T02:57:29.842Z,4.24
2018-02-21T02:59:59.055Z,4.20
2018-02-21T03:02:28.858Z,4.23
2018-02-21T03:04:58.275Z,4.17
2018-02-21T03:07:27.551Z,4.16
2018-02-21T03:09:57.335Z,4.20
2018-02-21T03:12:26.687Z,4.14
2018-02-21T03:14:55.939Z,4.15
2018-02-21T03:17:25.538Z,4.16
2018-02-21T03:19:54.788Z,4.12
2018-02-21T03:22:24.220Z,4.13
2018-02-21T03:24:53.998Z,4.10
2018-02-21T03:27:24.513Z,4.13
2018-02-21T03:29:53.779Z,4.12
2018-02-21T03:32:23.336Z,4.17
2018-02-21T03:34:52.570Z,4.13
2018-02-21T03:37:21.905Z,4.10
2018-02-21T03:39:51.579Z,4.15
2018-02-21T03:42:21.037Z,4.15
2018-02-21T03:44:50.350Z,4.09
2018-02-21T03:47:20.127Z,4.00
2018-02-21T03:49:49.416Z,3.95
2018-02-21T03:52:18.708Z,3.93
2018-02-21T03:54:48.065Z,3.89
2018-02-21T03:57:17.354Z,3.81
2018-02-21T03:59:49.058Z,3.80
2018-02-21T04:02:18.320Z,3.73
2018-02-21T04:04:47.578Z,3.74
2018-02-21T04:07:17.171Z,3.73
2018-02-21T04:09:46.447Z,3.72
2018-02-21T04:12:15.727Z,3.70
2018-02-21T04:16:14.661Z,3.65
2018-02-21T04:18:43.912Z,3.54
2018-02-21T04:21:13.568Z,3.51
2018-02-21T04:23:42.776Z,3.53
2018-02-21T04:26:12.008Z,3.51
2018-02-21T04:28:41.724Z,3.46
2018-02-21T04:31:10.962Z,3.48
2018-02-21T04:33:40.302Z,3.50
2018-02-21T04:36:09.947Z,3.46
2018-02-21T04:38:39.195Z,3.45
2018-02-21T04:41:08.518Z,3.44
2018-02-21T04:43:39.257Z,3.43
2018-02-21T04:46:08.555Z,3.41
2018-02-21T04:48:37.801Z,3.44
2018-02-21T04:51:07.478Z,3.48
2018-02-21T04:53:36.827Z,3.52
2018-02-21T04:56:07.148Z,3.55
2018-02-21T04:58:38.297Z,3.54
2018-02-21T05:01:07.734Z,3.58
2018-02-21T05:03:37.009Z,3.63
2018-02-21T05:06:07.578Z,3.65
2018-02-21T05:08:36.837Z,3.64
2018-02-21T05:11:06.095Z,3.60
2018-02-21T05:13:39.742Z,3.57
2018-02-21T05:16:09.134Z,3.50
2018-02-21T05:18:38.379Z,3.49
2018-02-21T05:21:09.102Z,3.46
2018-02-21T05:23:38.363Z,3.49
2018-02-21T05:26:07.628Z,3.45
2018-02-21T05:28:37.310Z,3.49
2018-02-21T05:31:06.596Z,3.42
2018-02-21T05:33:35.833Z,3.42
2018-02-21T05:36:06.561Z,3.45
2018-02-21T05:38:35.845Z,3.44
2018-02-21T05:41:05.278Z,3.42
2018-02-21T05:43:34.961Z,3.37
2018-02-21T05:46:05.376Z,3.41
2018-02-21T05:48:34.658Z,3.41
2018-02-21T05:51:04.488Z,3.46
2018-02-21T05:53:34.736Z,3.46
2018-02-21T05:56:04.727Z,3.43
2018-02-21T05:58:34.578Z,3.43
2018-02-21T06:01:04.930Z,3.42
2018-02-21T06:03:34.249Z,3.36
2018-02-21T06:06:04.639Z,3.36
2018-02-21T06:08:33.866Z,3.34
2018-02-21T06:11:03.392Z,3.28
2018-02-21T06:13:33.083Z,3.21
2018-02-21T06:16:03.050Z,3.21
2018-02-21T06:18:32.393Z,3.22
2018-02-21T06:21:02.431Z,3.20
2018-02-21T06:23:31.679Z,3.16
2018-02-21T06:26:00.911Z,3.13
2018-02-21T06:28:30.815Z,3.10
2018-02-21T06:31:00.112Z,3.10
2018-02-21T06:33:29.380Z,3.07
2018-02-21T06:38:27.003Z,3.10
2018-02-21T06:40:56.516Z,3.08
2018-02-21T06:43:26.642Z,3.03
2018-02-21T06:45:55.909Z,3.02
2018-02-21T06:48:25.237Z,2.96
2018-02-21T06:50:54.842Z,2.93
2018-02-21T06:53:24.116Z,2.84
2018-02-21T06:55:53.496Z,2.96
2018-02-21T06:58:23.237Z,2.92
2018-02-21T07:00:52.562Z,2.86
2018-02-21T07:03:21.959Z,2.93
2018-02-21T07:05:52.500Z,2.98
2018-02-21T07:08:22.006Z,3.00
2018-02-21T07:10:51.594Z,2.98
2018-02-21T07:13:21.997Z,3.03
2018-02-21T07:18:19.357Z,3.13
2018-02-21T07:20:49.189Z,3.15
2018-02-21T07:23:18.583Z,3.17
2018-02-21T07:25:49.627Z,3.21
2018-02-21T07:28:19.810Z,3.20
2018-02-21T07:30:49.063Z,3.23
2018-02-21T07:33:18.376Z,3.24
2018-02-21T07:35:48.851Z,3.42
2018-02-21T07:38:18.097Z,3.51
2018-02-21T07:40:47.358Z,3.62
2018-02-21T07:43:17.004Z,3.67
2018-02-21T07:45:46.343Z,3.74
2018-02-21T07:48:15.675Z,3.84
2018-02-21T07:50:45.400Z,3.99
2018-02-21T07:53:23.065Z,4.73
2018-02-21T07:55:58.483Z,5.59
2018-02-21T07:58:30.704Z,6.28
2018-02-21T08:01:00.600Z,6.67
2018-02-21T08:03:29.864Z,7.20
2018-02-21T08:05:59.246Z,7.59
2018-02-21T08:08:28.918Z,7.74
2018-02-21T08:10:58.169Z,8.06
2018-02-21T08:13:27.447Z,7.77
2018-02-21T08:15:57.130Z,7.99
2018-02-21T08:18:26.882Z,8.05
2018-02-21T08:20:56.168Z,8.00
2018-02-21T08:23:25.986Z,7.97
2018-02-21T08:25:55.308Z,8.24
2018-02-21T08:28:24.595Z,8.41
2018-02-21T08:30:54.284Z,8.29
2018-02-21T08:33:23.563Z,8.26
2018-02-21T08:35:52.810Z,8.03
2018-02-21T08:38:22.620Z,8.25
2018-02-21T08:40:52.396Z,8.12
2018-02-21T08:43:22.671Z,8.16
2018-02-21T08:45:52.378Z,8.18
2018-02-21T08:48:21.724Z,8.37
2018-02-21T08:50:51.007Z,8.31
2018-02-21T08:53:20.731Z,8.13
2018-02-21T08:55:50.019Z,7.96
2018-02-21T08:58:19.420Z,8.20
2018-02-21T09:00:49.071Z,8.18
2018-02-21T09:03:18.354Z,8.37
2018-02-21T09:05:47.651Z,8.56
2018-02-21T09:08:17.421Z,8.69
2018-02-21T09:10:46.702Z,8.75
2018-02-21T09:13:16.060Z,8.79
2018-02-21T09:15:45.607Z,8.57
2018-02-21T09:18:14.870Z,8.68
2018-02-21T09:20:44.209Z,9.01
2018-02-21T09:23:13.895Z,9.16
2018-02-21T09:25:44.185Z,9.39
2018-02-21T09:28:13.533Z,9.48
2018-02-21T09:30:43.755Z,9.21
2018-02-21T09:33:13.182Z,9.40
2018-02-21T09:35:43.092Z,9.63
2018-02-21T09:38:12.514Z,9.53
2018-02-21T09:40:41.998Z,9.31
2018-02-21T09:43:11.938Z,9.65
2018-02-21T09:45:41.216Z,9.90
2018-02-21T09:48:10.514Z,9.86
2018-02-21T09:50:40.071Z,9.85
2018-02-21T09:53:09.314Z,9.86
2018-02-21T09:55:38.595Z,9.78
2018-02-21T09:58:08.533Z,9.49
2018-02-21T10:00:38.344Z,9.60
2018-02-21T10:03:08.406Z,9.55
2018-02-21T10:05:37.997Z,9.75
2018-02-21T10:08:07.324Z,9.73
2018-02-21T10:10:42.520Z,9.90
2018-02-21T10:13:18.227Z,10.17
2018-02-21T10:15:48.076Z,10.26
2018-02-21T10:18:17.943Z,10.44
2018-02-21T10:20:47.348Z,10.28
2018-02-21T10:23:16.677Z,10.41
2018-02-21T10:25:46.342Z,10.57
2018-02-21T10:28:15.978Z,10.73
2018-02-21T10:30:45.353Z,10.86
2018-02-21T10:33:16.141Z,10.96
2018-02-21T10:35:47.012Z,10.73
2018-02-21T10:38:16.389Z,10.75
2018-02-21T10:40:46.112Z,10.61
2018-02-21T10:43:15.503Z,10.92
2018-02-21T10:45:44.900Z,10.98
2018-02-21T10:48:14.542Z,10.92
2018-02-21T10:50:43.807Z,11.11
2018-02-21T10:55:42.872Z,11.67
2018-02-21T10:58:13.168Z,11.83
2018-02-21T11:00:47.082Z,11.84
2018-02-21T11:03:17.315Z,11.94
2018-02-21T11:05:47.635Z,12.07
2018-02-21T11:08:17.227Z,12.28
2018-02-21T11:10:48.588Z,12.46
2018-02-21T11:13:18.335Z,12.43
2018-02-21T11:15:47.645Z,12.42
2018-02-21T11:18:17.556Z,12.75
2018-02-21T11:20:47.335Z,12.90
2018-02-21T11:23:16.608Z,12.97
2018-02-21T11:25:45.868Z,12.96
2018-02-21T11:28:16.299Z,13.16
2018-02-21T11:31:17.674Z,12.98
2018-02-21T11:33:48.118Z,12.97
2018-02-21T11:36:17.682Z,13.15
2018-02-21T11:38:47.432Z,13.50
2018-02-21T11:41:17.114Z,13.66
2018-02-21T11:43:46.403Z,13.69
2018-02-21T11:46:15.662Z,13.40
2018-02-21T11:48:45.247Z,13.33
2018-02-21T11:51:14.551Z,13.40
2018-02-21T11:53:43.815Z,13.78
2018-02-21T11:56:13.642Z,13.82
2018-02-21T11:58:42.963Z,13.79
2018-02-21T12:01:12.219Z,14.09
2018-02-21T12:03:41.472Z,13.86
2018-02-21T12:06:10.760Z,13.40
2018-02-21T12:08:40.034Z,13.11
2018-02-21T12:11:10.735Z,13.21
2018-02-21T12:13:40.718Z,13.17
2018-02-21T12:16:09.991Z,13.37
2018-02-21T12:18:39.251Z,13.64
2018-02-21T12:21:08.596Z,13.61
2018-02-21T12:23:38.204Z,13.41
2018-02-21T12:26:07.438Z,13.98
2018-02-21T12:28:36.724Z,14.35
2018-02-21T12:31:06.345Z,14.56
2018-02-21T12:33:35.587Z,14.98
2018-02-21T12:36:06.935Z,14.81
2018-02-21T12:38:37.508Z,14.72
2018-02-21T12:41:11.485Z,14.95
2018-02-21T12:43:40.850Z,14.96
2018-02-21T12:46:10.091Z,15.10
2018-02-21T12:48:39.342Z,15.36
2018-02-21T12:51:08.934Z,15.41
2018-02-21T12:53:38.860Z,15.56
2018-02-21T12:56:08.131Z,15.60
2018-02-21T12:58:37.767Z,15.80
2018-02-21T13:01:07.058Z,15.70
2018-02-21T13:03:36.256Z,16.05
2018-02-21T13:06:06.335Z,15.85
2018-02-21T13:08:36.727Z,15.72
2018-02-21T13:11:06.068Z,16.25
2018-02-21T13:13:36.820Z,16.11
2018-02-21T13:16:06.117Z,16.38
2018-02-21T13:18:35.345Z,16.31
2018-02-21T13:21:05.126Z,15.59
2018-02-21T13:23:34.640Z,15.54
2018-02-21T13:26:06.367Z,15.74
2018-02-21T13:28:35.678Z,16.06
2018-02-21T13:31:05.055Z,16.08
2018-02-21T13:33:34.709Z,15.38
2018-02-21T13:36:04.802Z,14.67
2018-02-21T13:38:34.171Z,14.61
2018-02-21T13:41:04.280Z,14.15
2018-02-21T13:43:34.073Z,13.75
2018-02-21T13:46:04.454Z,13.96
2018-02-21T13:48:33.984Z,13.72
2018-02-21T13:51:04.459Z,13.38
2018-02-21T13:53:33.726Z,13.25
2018-02-21T13:56:04.512Z,12.91
2018-02-21T13:58:33.787Z,12.62
2018-02-21T14:01:03.292Z,12.62
2018-02-21T14:03:32.894Z,12.58
2018-02-21T14:06:02.858Z,12.50
2018-02-21T14:08:34.022Z,12.03
2018-02-21T14:11:03.840Z,11.94
2018-02-21T14:13:33.147Z,12.06
2018-02-21T14:16:03.687Z,12.24
2018-02-21T14:18:32.964Z,12.50
2018-02-21T14:21:02.444Z,12.55
2018-02-21T14:23:33.184Z,12.61
2018-02-21T14:26:04.486Z,12.62
2018-02-21T14:28:33.764Z,12.69
2018-02-21T14:31:03.642Z,12.48
2018-02-21T14:33:32.973Z,12.29
2018-02-21T14:36:04.167Z,12.43
2018-02-21T14:38:33.481Z,12.10
2018-02-21T14:41:03.118Z,12.33
2018-02-21T14:43:33.424Z,12.25
2018-02-21T14:46:03.875Z,12.19
2018-02-21T14:48:34.472Z,11.92
2018-02-21T14:51:04.479Z,11.85
2018-02-21T14:53:33.746Z,11.77
2018-02-21T14:56:03.820Z,11.70
2018-02-21T14:58:33.403Z,11.74
2018-02-21T15:01:02.895Z,11.48
2018-02-21T15:03:32.159Z,11.24
2018-02-21T15:06:03.807Z,11.32
2018-02-21T15:08:33.086Z,11.30
2018-02-21T15:11:02.621Z,11.14
2018-02-21T15:13:33.439Z,10.98
2018-02-21T15:16:03.766Z,10.94
2018-02-21T15:18:33.366Z,10.89
2018-02-21T15:21:03.205Z,10.75
2018-02-21T15:23:32.513Z,10.76
2018-02-21T15:26:04.039Z,10.62
2018-02-21T15:31:33.423Z,10.46
2018-02-21T15:34:03.664Z,10.43
2018-02-21T15:36:32.982Z,10.70
2018-02-21T15:39:02.604Z,10.76
2018-02-21T15:41:31.843Z,10.76
2018-02-21T15:44:01.991Z,10.69
2018-02-21T15:46:32.524Z,10.89
2018-02-21T15:49:02.006Z,11.11
2018-02-21T15:51:32.321Z,11.33
2018-02-21T15:54:03.939Z,11.59
2018-02-21T15:56:34.377Z,11.81
2018-02-21T15:59:04.839Z,12.03
2018-02-21T16:01:34.413Z,12.17
2018-02-21T16:04:04.506Z,12.30
2018-02-21T16:06:33.756Z,12.04
2018-02-21T16:09:03.761Z,11.77
2018-02-21T16:11:33.050Z,12.01
2018-02-21T16:14:04.148Z,11.97
2018-02-21T16:16:35.016Z,11.61
2018-02-21T16:19:04.423Z,11.43
2018-02-21T16:21:34.679Z,11.10
2018-02-21T16:24:05.116Z,10.71
2018-02-21T16:26:34.580Z,10.39
2018-02-21T16:29:03.989Z,10.20
2018-02-21T16:31:33.295Z,10.15
2018-02-21T16:34:03.516Z,9.95
2018-02-21T16:36:33.225Z,9.67
2018-02-21T16:39:02.705Z,9.57
2018-02-21T16:41:32.022Z,9.55
2018-02-21T16:44:03.789Z,9.34
2018-02-21T16:46:33.139Z,9.15
2018-02-21T16:49:02.625Z,9.14
2018-02-21T16:51:33.558Z,9.01
2018-02-21T16:54:07.081Z,8.88
2018-02-21T16:56:36.830Z,8.80
2018-02-21T17:02:09.243Z,8.71
2018-02-21T17:04:39.709Z,8.65
2018-02-21T17:07:09.282Z,8.56
2018-02-21T17:09:38.882Z,8.52
2018-02-21T17:12:09.103Z,8.37
2018-02-21T17:14:38.779Z,8.29
2018-02-21T17:17:08.107Z,8.35
2018-02-21T17:19:37.621Z,8.12
2018-02-21T17:22:07.280Z,8.09
2018-02-21T17:24:36.556Z,8.08
2018-02-21T17:27:05.816Z,8.10
2018-02-21T17:29:35.473Z,8.10
2018-02-21T17:32:05.383Z,7.98
2018-02-21T17:34:34.662Z,7.94
2018-02-21T17:37:04.550Z,7.93
2018-02-21T17:39:33.810Z,7.93
2018-02-21T17:42:05.018Z,7.87
2018-02-21T17:44:34.567Z,7.82
2018-02-21T17:47:04.191Z,7.77
2018-02-21T17:49:33.429Z,7.80
2018-02-21T17:52:05.129Z,7.78
2018-02-21T17:54:34.407Z,7.75
2018-02-21T17:57:04.031Z,7.61
2018-02-21T17:59:33.629Z,7.57
2018-02-21T18:02:06.680Z,7.50
2018-02-21T18:04:36.381Z,7.40
2018-02-21T18:07:06.149Z,7.40
2018-02-21T18:09:35.480Z,7.34
2018-02-21T18:12:05.689Z,7.33
2018-02-21T18:14:38.786Z,7.28
2018-02-21T18:17:08.362Z,7.20
2018-02-21T18:19:37.839Z,7.17
2018-02-21T18:22:07.421Z,7.16
2018-02-21T18:27:18.585Z,6.93
2018-02-21T18:29:48.483Z,6.91
2018-02-21T18:32:19.491Z,6.94
2018-02-21T18:34:49.422Z,6.85
2018-02-21T18:37:18.711Z,6.84
2018-02-21T18:39:48.018Z,6.90
2018-02-21T18:42:17.026Z,6.83
2018-02-21T18:44:46.943Z,6.79
2018-02-21T18:47:16.198Z,6.76
2018-02-21T18:49:45.909Z,6.73
2018-02-21T18:52:16.808Z,6.64
2018-02-21T18:54:46.076Z,6.59
2018-02-21T18:57:15.598Z,6.58
2018-02-21T18:59:44.919Z,6.58
2018-02-21T19:02:14.182Z,6.60
2018-02-21T19:04:44.296Z,6.54
2018-02-21T19:07:13.610Z,6.51
2018-02-21T19:09:42.355Z,6.48
2018-02-21T19:12:11.573Z,6.48
2018-02-21T19:14:41.267Z,6.44
2018-02-21T19:17:10.353Z,6.43
2018-02-21T19:19:40.093Z,6.37
2018-02-21T19:22:09.396Z,6.30
2018-02-21T19:24:38.717Z,6.35
2018-02-21T19:27:08.390Z,6.35
2018-02-21T19:29:37.853Z,6.24
2018-02-21T19:32:07.162Z,6.14
2018-02-21T19:34:37.001Z,6.13
2018-02-21T19:37:06.255Z,6.07
2018-02-21T19:39:35.490Z,6.09
2018-02-21T19:42:05.610Z,6.06
2018-02-21T19:44:34.835Z,6.00
2018-02-21T19:47:04.266Z,6.01
2018-02-21T19:49:33.927Z,5.91
2018-02-21T19:52:06.815Z,5.95
2018-02-21T19:54:36.103Z,5.94
2018-02-21T19:57:05.712Z,5.90
2018-02-21T19:59:34.993Z,5.85
2018-02-21T20:02:05.503Z,5.82
2018-02-21T20:04:35.306Z,5.77
2018-02-21T20:07:04.773Z,5.65
2018-02-21T20:09:34.062Z,5.64
2018-02-21T20:12:04.054Z,5.60
2018-02-21T20:14:33.390Z,5.59
2018-02-21T20:17:05.083Z,5.52
2018-02-21T20:19:34.385Z,5.48
2018-02-21T20:22:04.845Z,5.36
2018-02-21T20:24:34.505Z,5.32
2018-02-21T20:27:03.988Z,5.34
2018-02-21T20:29:33.221Z,5.28
2018-02-21T20:32:04.027Z,5.28
2018-02-21T20:34:33.279Z,5.31
2018-02-21T20:37:03.684Z,5.30
2018-02-21T20:39:33.463Z,5.28
2018-02-21T20:42:03.683Z,5.21
2018-02-21T20:44:32.915Z,5.24
2018-02-21T20:47:02.517Z,5.26
2018-02-21T20:49:31.789Z,5.21
2018-02-21T20:52:01.377Z,5.18
2018-02-21T20:54:30.957Z,5.18
2018-02-21T20:57:00.227Z,5.18
2018-02-21T20:59:59.683Z,5.12
2018-02-21T21:02:29.924Z,5.10
2018-02-21T21:04:59.221Z,5.11
2018-02-21T21:07:28.483Z,5.06
2018-02-21T21:09:58.023Z,5.05
2018-02-21T21:12:27.274Z,5.02
2018-02-21T21:14:56.488Z,5.03
2018-02-21T21:17:26.141Z,5.00
2018-02-21T21:19:55.376Z,4.96
2018-02-21T21:22:24.613Z,4.87
2018-02-21T21:24:53.906Z,4.88
2018-02-21T21:27:23.146Z,4.81
2018-02-21T21:29:52.570Z,4.76
2018-02-21T21:32:22.809Z,4.74
2018-02-21T21:34:52.512Z,4.72
2018-02-21T21:37:22.348Z,4.71
2018-02-21T21:39:52.243Z,4.63
2018-02-21T21:42:21.945Z,4.62
2018-02-21T21:44:52.326Z,4.58
2018-02-21T21:47:22.175Z,4.60
2018-02-21T21:49:51.727Z,4.58
2018-02-21T21:52:21.735Z,4.50
2018-02-21T21:54:52.135Z,4.45
2018-02-21T21:57:22.758Z,4.45
2018-02-21T22:05:07.034Z,4.44
2018-02-21T22:07:37.476Z,4.43
2018-02-21T22:10:07.907Z,4.45
2018-02-21T22:12:38.152Z,4.43
2018-02-21T22:15:08.156Z,4.37
2018-02-21T22:17:38.192Z,4.33
2018-02-21T22:20:07.540Z,4.34
2018-02-21T22:22:37.631Z,4.30
2018-02-21T22:25:07.478Z,4.32
2018-02-21T22:27:37.189Z,4.31
2018-02-21T22:30:06.487Z,4.32
2018-02-21T22:32:36.083Z,4.30
2018-02-21T22:35:05.402Z,4.26
2018-02-21T22:37:34.781Z,4.22
2018-02-21T22:40:04.693Z,4.26
2018-02-21T22:42:34.009Z,4.18
2018-02-21T22:45:03.781Z,4.14
2018-02-21T22:47:33.385Z,4.09
2018-02-21T22:50:03.499Z,4.10
2018-02-21T22:55:15.905Z,4.00
2018-02-21T22:57:45.228Z,3.98
2018-02-21T23:00:15.685Z,3.97
2018-02-21T23:02:45.025Z,3.99
2018-02-21T23:05:14.320Z,4.02
2018-02-21T23:07:44.237Z,3.88
2018-02-21T23:10:13.515Z,3.87
2018-02-21T23:12:42.993Z,3.93
2018-02-21T23:15:12.536Z,3.94
2018-02-21T23:17:42.016Z,3.93
2018-02-21T23:20:11.244Z,3.91
2018-02-21T23:22:40.859Z,3.87
2018-02-21T23:25:10.075Z,3.80
2018-02-21T23:27:39.423Z,3.77
2018-02-21T23:30:09.075Z,3.76
2018-02-21T23:32:38.505Z,3.72
2018-02-21T23:35:08.046Z,3.71
2018-02-21T23:37:38.667Z,3.63
2018-02-21T23:40:08.338Z,3.60
2018-02-21T23:42:37.620Z,3.68
2018-02-21T23:45:07.287Z,3.60
2018-02-21T23:47:37.514Z,3.69
2018-02-21T23:50:07.465Z,3.68
2018-02-21T23:52:37.171Z,3.61
2018-02-21T23:55:06.511Z,3.61
2018-02-21T23:57:35.806Z,3.63
